Time;durP1;ratioP1;P1;durP2;ratioP2;P2;SDS_P1;SDS_P2;PMS_P1;PMS_P2;Temp;Humidity;BMP_temperature;BMP_pressure;BME280_temperature;BME280_humidity;BME280_pressure;Samples;Min_cycle;Max_cycle;Signal;HPM_P1;HPM_P2
2023/07/02 00:01:10;;;;;;;2.00;1.05;;;20.80;99.90;;;;;;4972676;28;20065;-38
2023/07/02 00:03:40;;;;;;;1.52;1.15;;;20.80;99.90;;;;;;4972663;28;20076;-38
2023/07/02 00:06:06;;;;;;;1.45;1.05;;;20.80;99.90;;;;;;4972399;28;20034;-38
2023/07/02 00:08:32;;;;;;;1.83;1.10;;;20.80;99.90;;;;;;4972361;28;20027;-39
2023/07/02 00:10:57;;;;;;;2.15;1.00;;;20.80;99.90;;;;;;4972241;28;20078;-40
2023/07/02 00:13:23;;;;;;;1.27;1.05;;;20.80;99.90;;;;;;4972233;28;20062;-38
2023/07/02 00:15:48;;;;;;;1.15;0.90;;;20.80;99.90;;;;;;4972244;28;20041;-39
2023/07/02 00:18:17;;;;;;;3.50;1.10;;;20.80;99.90;;;;;;4972940;28;20074;-37
2023/07/02 00:20:43;;;;;;;1.38;0.93;;;20.80;99.90;;;;;;4976211;28;20038;-39
2023/07/02 00:23:09;;;;;;;4.03;1.10;;;20.70;99.90;;;;;;4976009;28;20036;-37
2023/07/02 00:25:36;;;;;;;1.88;1.08;;;20.80;99.90;;;;;;4976772;28;20031;-38
2023/07/02 00:28:02;;;;;;;1.70;1.10;;;20.80;99.90;;;;;;4976293;28;20061;-38
2023/07/02 00:30:27;;;;;;;3.78;1.13;;;20.80;99.90;;;;;;4975713;28;20439;-39
2023/07/02 00:32:53;;;;;;;2.55;0.95;;;20.80;99.90;;;;;;4975977;28;20073;-39
2023/07/02 00:35:19;;;;;;;1.52;1.10;;;20.80;99.90;;;;;;4976054;28;20493;-37
2023/07/02 00:37:44;;;;;;;2.17;0.90;;;20.70;99.90;;;;;;4975845;28;20098;-38
2023/07/02 00:40:10;;;;;;;2.85;1.40;;;20.80;99.90;;;;;;4975608;28;20038;-38
2023/07/02 00:42:36;;;;;;;2.03;1.27;;;20.80;99.90;;;;;;4976240;28;20026;-38
2023/07/02 00:45:02;;;;;;;3.35;1.30;;;20.80;99.90;;;;;;4975547;28;20093;-39
2023/07/02 00:47:30;;;;;;;1.48;1.10;;;20.80;99.90;;;;;;4975714;28;20029;-38
2023/07/02 00:49:55;;;;;;;1.35;1.08;;;20.80;99.90;;;;;;4975449;28;20023;-38
2023/07/02 00:52:23;;;;;;;1.58;1.10;;;20.70;99.90;;;;;;4975743;28;20098;-37
2023/07/02 00:54:49;;;;;;;3.03;1.20;;;20.80;99.90;;;;;;4975500;28;20188;-38
2023/07/02 00:57:15;;;;;;;1.73;0.95;;;20.80;99.90;;;;;;4975473;28;20482;-39
2023/07/02 00:59:40;;;;;;;1.75;1.20;;;20.70;99.90;;;;;;4975270;28;20027;-39
2023/07/02 01:02:06;;;;;;;2.17;1.10;;;20.70;99.90;;;;;;4976016;28;20066;-37
2023/07/02 01:04:32;;;;;;;1.92;1.10;;;20.70;99.90;;;;;;4975634;28;20074;-38
2023/07/02 01:06:57;;;;;;;1.88;1.27;;;20.70;99.90;;;;;;4975394;28;20034;-38
2023/07/02 01:09:27;;;;;;;1.27;1.02;;;20.70;99.90;;;;;;4975110;28;20038;-37
2023/07/02 01:11:56;;;;;;;1.60;1.08;;;20.70;99.90;;;;;;4975196;28;20074;-38
2023/07/02 01:14:33;;;;;;;1.50;1.15;;;20.70;99.90;;;;;;4975139;28;20081;-37
2023/07/02 01:17:00;;;;;;;1.23;0.90;;;20.70;99.90;;;;;;4975194;28;20030;-39
2023/07/02 01:19:51;;;;;;;1.23;0.98;;;20.70;99.90;;;;;;4975255;28;20031;-39
2023/07/02 01:22:27;;;;;;;4.32;1.10;;;20.70;99.90;;;;;;4975496;28;20041;-37
2023/07/02 01:24:54;;;;;;;1.30;1.10;;;20.70;99.90;;;;;;4975111;28;20386;-40
2023/07/02 01:27:20;;;;;;;2.25;1.10;;;20.70;99.90;;;;;;4974972;28;20035;-40
2023/07/02 01:29:46;;;;;;;1.50;0.90;;;20.70;99.90;;;;;;4974336;28;20058;-39
2023/07/02 01:32:13;;;;;;;1.67;1.13;;;20.70;99.90;;;;;;4974819;28;20037;-39
2023/07/02 01:34:39;;;;;;;1.52;1.10;;;20.70;99.90;;;;;;4975202;28;20033;-39
2023/07/02 01:37:05;;;;;;;1.58;1.20;;;20.70;99.90;;;;;;4989901;28;20026;-38
2023/07/02 01:39:31;;;;;;;1.63;1.10;;;20.70;99.90;;;;;;4975038;28;20030;-37
2023/07/02 01:42:09;;;;;;;1.83;1.23;;;20.70;99.90;;;;;;4974733;28;20122;-40
2023/07/02 01:44:35;;;;;;;1.48;1.20;;;20.70;99.90;;;;;;4974591;28;20478;-38
2023/07/02 01:47:00;;;;;;;1.65;1.05;;;20.70;99.90;;;;;;4974674;28;20077;-40
2023/07/02 01:49:26;;;;;;;4.13;1.20;;;20.60;99.90;;;;;;4974229;28;20602;-39
2023/07/02 01:51:53;;;;;;;3.15;1.40;;;20.70;99.90;;;;;;4974616;28;20039;-39
2023/07/02 01:54:19;;;;;;;1.30;1.10;;;20.60;99.90;;;;;;4974450;28;20034;-38
2023/07/02 01:56:45;;;;;;;1.55;1.08;;;20.70;99.90;;;;;;4974944;28;20026;-38
2023/07/02 01:59:11;;;;;;;1.25;1.05;;;20.60;99.90;;;;;;4974327;28;20053;-39
2023/07/02 02:01:40;;;;;;;1.80;1.17;;;20.60;99.90;;;;;;4974305;28;20375;-39
2023/07/02 02:04:09;;;;;;;3.28;1.17;;;20.60;99.90;;;;;;4974260;28;20035;-38
2023/07/02 02:06:35;;;;;;;1.75;1.20;;;20.60;99.90;;;;;;4974262;28;20022;-39
2023/07/02 02:09:04;;;;;;;1.55;1.30;;;20.60;99.90;;;;;;4974329;28;20037;-38
2023/07/02 02:11:30;;;;;;;1.80;1.33;;;20.60;99.90;;;;;;4974592;28;20018;-37
2023/07/02 02:13:57;;;;;;;2.25;1.20;;;20.60;99.90;;;;;;4974114;28;20030;-38
2023/07/02 02:16:23;;;;;;;1.63;1.02;;;20.60;99.90;;;;;;4989798;28;20078;-37
2023/07/02 02:18:51;;;;;;;1.90;1.17;;;20.60;99.90;;;;;;4973889;28;20031;-37
2023/07/02 02:21:17;;;;;;;2.90;1.35;;;20.60;99.90;;;;;;4974070;28;20054;-38
2023/07/02 02:23:43;;;;;;;1.77;1.27;;;20.60;99.90;;;;;;4974414;28;20023;-39
2023/07/02 02:26:09;;;;;;;1.92;1.30;;;20.60;99.90;;;;;;4973906;28;20086;-38
2023/07/02 02:28:35;;;;;;;2.75;1.10;;;20.60;99.90;;;;;;4973840;28;20102;-39
2023/07/02 02:31:00;;;;;;;1.90;1.10;;;20.60;99.90;;;;;;4973526;28;20475;-38
2023/07/02 02:33:26;;;;;;;2.90;1.10;;;20.60;99.90;;;;;;4973636;28;20022;-38
2023/07/02 02:35:51;;;;;;;1.75;1.20;;;20.60;99.90;;;;;;4973665;28;20074;-38
2023/07/02 02:38:17;;;;;;;2.40;1.20;;;20.60;99.90;;;;;;4974117;28;20027;-39
2023/07/02 02:40:43;;;;;;;2.05;1.10;;;20.60;99.90;;;;;;4972775;28;20524;-39
2023/07/02 02:43:09;;;;;;;1.38;1.10;;;20.60;99.90;;;;;;4973387;28;20390;-40
2023/07/02 02:45:34;;;;;;;1.65;1.20;;;20.60;99.90;;;;;;4973799;28;20038;-39
2023/07/02 02:48:00;;;;;;;3.50;1.30;;;20.60;99.90;;;;;;4973491;28;20078;-38
2023/07/02 02:50:26;;;;;;;1.50;1.00;;;20.60;99.90;;;;;;4973532;28;20047;-39
2023/07/02 02:52:52;;;;;;;1.58;0.88;;;20.60;99.90;;;;;;4973407;28;20101;-37
2023/07/02 02:55:18;;;;;;;1.67;1.00;;;20.60;99.90;;;;;;4973720;28;20154;-38
2023/07/02 02:57:44;;;;;;;2.28;1.00;;;20.60;99.90;;;;;;4973552;28;20050;-39
2023/07/02 03:00:11;;;;;;;1.77;1.00;;;20.60;99.90;;;;;;4972939;28;20027;-38
2023/07/02 03:02:38;;;;;;;1.65;1.10;;;20.60;99.90;;;;;;4973140;28;20057;-39
2023/07/02 03:05:06;;;;;;;3.28;1.20;;;20.60;99.90;;;;;;4973074;28;20027;-38
2023/07/02 03:07:32;;;;;;;1.58;1.17;;;20.60;99.90;;;;;;4973176;28;20538;-37
2023/07/02 03:09:58;;;;;;;1.58;1.10;;;20.60;99.90;;;;;;4972949;28;20106;-37
2023/07/02 03:12:25;;;;;;;2.00;1.42;;;20.60;99.90;;;;;;4973113;28;20098;-37
2023/07/02 03:14:54;;;;;;;3.03;1.58;;;20.60;99.90;;;;;;4972920;28;20062;-37
2023/07/02 03:17:20;;;;;;;1.40;1.00;;;20.60;99.90;;;;;;4973039;28;20458;-39
2023/07/02 03:19:46;;;;;;;2.03;1.38;;;20.60;99.90;;;;;;4972711;28;20022;-38
2023/07/02 03:22:12;;;;;;;2.50;1.38;;;20.60;99.90;;;;;;4973018;28;20414;-38
2023/07/02 03:24:38;;;;;;;1.83;1.10;;;20.60;99.90;;;;;;4972905;28;20054;-39
2023/07/02 03:27:04;;;;;;;2.85;1.00;;;20.60;99.90;;;;;;4973692;28;20498;-38
2023/07/02 03:29:29;;;;;;;1.40;1.00;;;20.60;99.90;;;;;;4972553;28;20454;-37
2023/07/02 03:31:55;;;;;;;1.17;1.08;;;20.60;99.90;;;;;;4972745;28;20030;-40
2023/07/02 03:34:22;;;;;;;1.48;1.10;;;20.50;99.90;;;;;;4972852;28;20251;-39
2023/07/02 03:36:48;;;;;;;2.20;1.30;;;20.50;99.90;;;;;;4972708;28;20033;-39
2023/07/02 03:39:13;;;;;;;2.83;1.00;;;20.50;99.90;;;;;;4972514;28;20023;-38
2023/07/02 03:41:39;;;;;;;2.03;1.30;;;20.50;99.90;;;;;;4972677;28;20062;-39
2023/07/02 03:44:05;;;;;;;3.33;1.50;;;20.50;99.90;;;;;;4972343;28;20027;-38
2023/07/02 03:46:31;;;;;;;1.65;1.15;;;20.50;99.90;;;;;;4972865;28;20038;-39
2023/07/02 03:48:56;;;;;;;1.80;1.20;;;20.50;99.90;;;;;;4972540;28;20110;-38
2023/07/02 03:51:22;;;;;;;2.28;1.10;;;20.50;99.90;;;;;;4972537;28;20023;-37
2023/07/02 03:53:48;;;;;;;2.55;1.08;;;20.50;99.90;;;;;;4972463;28;20367;-38
2023/07/02 03:56:13;;;;;;;2.05;1.33;;;20.50;99.90;;;;;;4972793;28;20038;-40
2023/07/02 03:58:42;;;;;;;1.52;1.15;;;20.50;99.90;;;;;;4972400;28;20031;-39
2023/07/02 04:01:08;;;;;;;2.40;1.50;;;20.50;99.90;;;;;;4972602;28;20039;-38
2023/07/02 04:03:34;;;;;;;2.30;1.20;;;20.50;99.90;;;;;;4972388;28;20042;-39
2023/07/02 04:05:59;;;;;;;4.22;1.48;;;20.50;99.90;;;;;;4972347;28;20035;-39
2023/07/02 04:08:27;;;;;;;2.38;1.48;;;20.50;99.90;;;;;;4972370;28;20023;-40
2023/07/02 04:10:54;;;;;;;4.13;1.50;;;20.50;99.90;;;;;;4972181;28;20466;-37
2023/07/02 04:13:20;;;;;;;1.92;1.20;;;20.50;99.90;;;;;;4972298;28;20283;-37
2023/07/02 04:15:45;;;;;;;2.55;1.15;;;20.50;99.90;;;;;;4972400;28;20110;-39
2023/07/02 04:18:11;;;;;;;1.63;1.17;;;20.50;99.90;;;;;;4972371;28;20038;-36
2023/07/02 04:20:38;;;;;;;3.92;1.30;;;20.50;99.90;;;;;;4972099;28;20027;-39
2023/07/02 04:23:05;;;;;;;1.40;1.00;;;20.50;99.90;;;;;;4972202;28;20027;-38
2023/07/02 04:25:30;;;;;;;1.80;1.33;;;20.50;99.90;;;;;;4972078;28;20038;-40
2023/07/02 04:27:58;;;;;;;1.45;0.98;;;20.50;99.90;;;;;;4972191;28;20023;-39
2023/07/02 04:30:24;;;;;;;1.30;1.00;;;20.50;99.90;;;;;;4972025;28;20026;-38
2023/07/02 04:32:51;;;;;;;1.52;1.20;;;20.50;99.90;;;;;;4972111;28;20015;-37
2023/07/02 04:35:17;;;;;;;2.03;1.33;;;20.50;99.90;;;;;;4972068;28;20019;-40
2023/07/02 04:37:42;;;;;;;3.13;1.35;;;20.50;99.90;;;;;;4972151;28;20479;-40
2023/07/02 04:40:11;;;;;;;3.05;1.30;;;20.50;99.90;;;;;;4972292;28;20107;-39
2023/07/02 04:42:38;;;;;;;1.50;1.10;;;20.50;99.90;;;;;;4972093;28;20506;-40
2023/07/02 04:45:08;;;;;;;2.65;1.58;;;20.50;99.90;;;;;;4971920;28;20030;-38
2023/07/02 04:47:36;;;;;;;3.13;1.20;;;20.50;99.90;;;;;;4972032;28;20402;-39
2023/07/02 04:50:02;;;;;;;2.90;1.40;;;20.50;99.90;;;;;;4972042;28;20031;-39
2023/07/02 04:52:28;;;;;;;2.67;1.20;;;20.50;99.90;;;;;;4971993;28;20029;-39
2023/07/02 04:54:55;;;;;;;5.07;1.25;;;20.50;99.90;;;;;;4971803;28;20027;-39
2023/07/02 04:57:21;;;;;;;2.58;1.15;;;20.50;99.90;;;;;;4972044;28;20058;-40
2023/07/02 04:59:47;;;;;;;1.52;1.23;;;20.50;99.90;;;;;;4971726;28;20077;-38
2023/07/02 05:02:13;;;;;;;2.10;1.20;;;20.50;99.90;;;;;;4971839;28;20035;-39
2023/07/02 05:04:38;;;;;;;1.40;1.20;;;20.50;99.90;;;;;;4972828;28;20058;-39
2023/07/02 05:07:04;;;;;;;2.65;1.35;;;20.50;99.90;;;;;;4975351;28;20505;-39
2023/07/02 05:09:30;;;;;;;3.22;1.27;;;20.50;99.90;;;;;;4975028;28;20105;-37
2023/07/02 05:11:56;;;;;;;2.13;1.33;;;20.50;99.90;;;;;;4975283;28;20397;-37
2023/07/02 05:14:22;;;;;;;4.30;1.60;;;20.50;99.90;;;;;;4975192;28;20508;-37
2023/07/02 05:16:48;;;;;;;3.47;1.33;;;20.50;99.90;;;;;;4975236;28;20033;-39
2023/07/02 05:19:14;;;;;;;2.47;1.20;;;20.50;99.90;;;;;;4975061;28;20109;-39
2023/07/02 05:21:40;;;;;;;2.03;1.50;;;20.40;99.90;;;;;;4975482;28;20478;-38
2023/07/02 05:24:05;;;;;;;2.72;1.38;;;20.50;99.90;;;;;;4974878;28;20031;-38
2023/07/02 05:26:32;;;;;;;4.15;1.70;;;20.50;99.90;;;;;;4975561;28;20034;-39
2023/07/02 05:28:58;;;;;;;2.38;1.40;;;20.40;99.90;;;;;;4974837;28;20058;-39
2023/07/02 05:31:23;;;;;;;2.15;1.38;;;20.40;99.90;;;;;;4974884;28;20057;-38
2023/07/02 05:33:49;;;;;;;2.88;1.60;;;20.40;99.90;;;;;;4974852;28;20023;-38
2023/07/02 05:36:15;;;;;;;2.78;1.50;;;20.40;99.90;;;;;;4974928;28;20094;-39
2023/07/02 05:38:40;;;;;;;2.67;1.60;;;20.40;99.90;;;;;;4974713;28;20105;-39
2023/07/02 05:41:06;;;;;;;3.88;1.42;;;20.40;99.90;;;;;;4975021;28;20022;-37
2023/07/02 05:43:31;;;;;;;1.90;1.40;;;20.40;99.90;;;;;;4974688;28;20038;-38
2023/07/02 05:46:00;;;;;;;3.55;1.58;;;20.40;99.90;;;;;;4989572;28;20131;-37
2023/07/02 05:48:27;;;;;;;2.63;1.50;;;20.40;99.90;;;;;;4974629;28;20074;-39
2023/07/02 05:50:53;;;;;;;2.17;1.63;;;20.40;99.90;;;;;;4974438;28;20026;-39
2023/07/02 05:53:18;;;;;;;3.38;1.90;;;20.40;99.90;;;;;;4974447;28;20554;-39
2023/07/02 05:55:44;;;;;;;3.90;1.80;;;20.40;99.90;;;;;;4974462;28;20031;-38
2023/07/02 05:58:10;;;;;;;2.38;1.65;;;20.40;99.90;;;;;;4974462;28;20026;-37
2023/07/02 06:00:36;;;;;;;3.30;1.90;;;20.40;99.90;;;;;;4974039;28;20482;-39
2023/07/02 06:03:02;;;;;;;3.38;1.90;;;20.40;99.90;;;;;;4974306;28;20046;-38
2023/07/02 06:05:28;;;;;;;3.63;2.13;;;20.40;99.90;;;;;;4974280;28;20315;-40
2023/07/02 06:07:54;;;;;;;4.05;2.30;;;20.40;99.90;;;;;;4974672;28;20089;-38
2023/07/02 06:10:19;;;;;;;3.92;1.83;;;20.40;99.90;;;;;;4974006;28;20031;-39
2023/07/02 06:12:45;;;;;;;2.85;2.08;;;20.50;99.90;;;;;;4974350;28;20023;-37
2023/07/02 06:15:11;;;;;;;4.03;1.95;;;20.40;99.90;;;;;;4973913;28;20394;-38
2023/07/02 06:17:37;;;;;;;4.57;2.25;;;20.40;99.90;;;;;;4974109;28;20045;-38
2023/07/02 06:20:06;;;;;;;3.70;2.50;;;20.50;99.90;;;;;;4974031;28;20051;-39
2023/07/02 06:22:31;;;;;;;3.70;2.42;;;20.50;99.90;;;;;;4974417;28;20042;-39
2023/07/02 06:24:57;;;;;;;3.28;2.35;;;20.50;99.90;;;;;;4973791;28;20031;-38
2023/07/02 06:27:23;;;;;;;5.72;2.70;;;20.50;99.90;;;;;;4973973;28;20106;-37
2023/07/02 06:29:50;;;;;;;4.95;2.50;;;20.50;99.90;;;;;;4973803;28;20033;-37
2023/07/02 06:32:16;;;;;;;3.78;2.85;;;20.50;99.90;;;;;;4973905;28;20067;-37
2023/07/02 06:34:41;;;;;;;5.07;2.95;;;20.40;99.90;;;;;;4973604;28;20486;-39
2023/07/02 06:37:07;;;;;;;3.60;2.70;;;20.50;99.90;;;;;;4973764;28;20074;-38
2023/07/02 06:39:33;;;;;;;3.92;2.60;;;20.50;99.90;;;;;;4973464;28;20066;-38
2023/07/02 06:41:58;;;;;;;4.43;2.97;;;20.50;99.90;;;;;;4973763;28;20022;-38
2023/07/02 06:44:24;;;;;;;5.57;3.08;;;20.50;99.90;;;;;;4973377;28;20053;-39
2023/07/02 06:46:49;;;;;;;4.90;3.40;;;20.50;99.90;;;;;;4973559;28;20027;-39
2023/07/02 06:49:15;;;;;;;4.28;2.80;;;20.50;99.90;;;;;;4973196;28;20034;-38
2023/07/02 06:51:41;;;;;;;5.88;3.08;;;20.50;99.90;;;;;;4973650;28;20031;-38
2023/07/02 06:54:06;;;;;;;5.68;3.33;;;20.50;99.90;;;;;;4973364;28;20030;-38
2023/07/02 06:56:33;;;;;;;7.28;3.30;;;20.50;99.90;;;;;;4973373;28;20094;-39
2023/07/02 06:58:59;;;;;;;4.72;2.95;;;20.50;99.90;;;;;;4973107;28;20082;-39
2023/07/02 07:01:25;;;;;;;5.97;3.50;;;20.50;99.90;;;;;;4973437;28;20038;-38
2023/07/02 07:03:51;;;;;;;8.77;3.83;;;20.50;99.90;;;;;;4973099;28;20025;-39
2023/07/02 07:06:17;;;;;;;5.93;3.20;;;20.50;99.90;;;;;;4973274;28;20041;-38
2023/07/02 07:08:42;;;;;;;6.43;3.63;;;20.50;99.90;;;;;;4973091;28;20018;-38
2023/07/02 07:11:08;;;;;;;7.18;3.75;;;20.50;99.90;;;;;;4973544;28;20019;-38
2023/07/02 07:13:33;;;;;;;7.70;3.90;;;20.50;99.90;;;;;;4973478;28;20030;-38
2023/07/02 07:15:59;;;;;;;6.25;3.97;;;20.60;99.90;;;;;;4973041;28;20038;-38
2023/07/02 07:18:25;;;;;;;6.90;4.30;;;20.50;99.90;;;;;;4972956;28;20046;-38
2023/07/02 07:20:52;;;;;;;7.65;4.40;;;20.50;99.90;;;;;;4972710;28;20031;-37
2023/07/02 07:23:18;;;;;;;6.88;4.03;;;20.50;99.90;;;;;;4972879;28;20108;-37
2023/07/02 07:25:43;;;;;;;8.20;4.07;;;20.50;99.90;;;;;;4972883;28;20155;-38
2023/07/02 07:28:15;;;;;;;7.00;4.32;;;20.50;99.90;;;;;;4972448;28;20509;-37
2023/07/02 07:30:41;;;;;;;10.43;4.65;;;20.50;99.90;;;;;;4973229;28;20015;-39
2023/07/02 07:33:06;;;;;;;7.60;4.45;;;20.50;99.90;;;;;;4972914;28;20027;-38
2023/07/02 07:35:32;;;;;;;6.88;4.55;;;20.50;99.90;;;;;;4972872;28;20031;-39
2023/07/02 07:37:57;;;;;;;8.02;4.47;;;20.50;99.90;;;;;;4972718;28;20395;-36
2023/07/02 07:40:23;;;;;;;9.85;5.47;;;20.50;99.90;;;;;;4972510;28;20026;-40
2023/07/02 07:42:49;;;;;;;10.52;5.00;;;20.50;99.90;;;;;;4972622;28;20038;-39
2023/07/02 07:45:14;;;;;;;7.43;5.20;;;20.50;99.90;;;;;;4972426;28;20079;-37
2023/07/02 07:47:40;;;;;;;9.60;5.25;;;20.50;99.90;;;;;;4972728;28;20027;-38
2023/07/02 07:50:10;;;;;;;9.65;4.95;;;20.50;99.90;;;;;;4972380;28;20023;-39
2023/07/02 07:52:39;;;;;;;8.68;5.30;;;20.60;99.90;;;;;;4972576;28;20023;-37
2023/07/02 07:55:06;;;;;;;7.93;4.78;;;20.60;99.90;;;;;;4972497;28;20556;-38
2023/07/02 07:57:32;;;;;;;9.45;5.32;;;20.50;99.90;;;;;;4972793;28;20026;-39
2023/07/02 07:59:57;;;;;;;8.18;5.20;;;20.60;99.90;;;;;;4972279;28;20561;-37
2023/07/02 08:02:23;;;;;;;8.20;4.70;;;20.60;99.90;;;;;;4972246;28;20030;-38
2023/07/02 08:04:49;;;;;;;8.43;5.22;;;20.50;99.90;;;;;;4972226;28;20553;-38
2023/07/02 08:07:15;;;;;;;9.50;5.10;;;20.60;99.90;;;;;;4972317;28;20037;-37
2023/07/02 08:09:41;;;;;;;7.97;5.43;;;20.60;99.90;;;;;;4972160;28;20082;-37
2023/07/02 08:12:07;;;;;;;11.02;5.95;;;20.60;99.90;;;;;;4972663;28;20022;-39
2023/07/02 08:14:35;;;;;;;9.07;5.25;;;20.60;99.90;;;;;;4972548;28;20113;-37
2023/07/02 08:17:00;;;;;;;10.00;5.88;;;20.60;99.90;;;;;;4972810;28;20030;-40
2023/07/02 08:19:26;;;;;;;9.40;5.55;;;20.60;99.90;;;;;;4972148;28;20031;-37
2023/07/02 08:21:52;;;;;;;8.70;5.38;;;20.60;99.90;;;;;;4973631;28;20035;-38
2023/07/02 08:24:17;;;;;;;9.13;5.68;;;20.60;99.90;;;;;;4972148;28;20398;-39
2023/07/02 08:26:44;;;;;;;10.48;6.25;;;20.60;99.90;;;;;;4972383;28;20492;-40
2023/07/02 08:29:10;;;;;;;8.15;5.30;;;20.60;99.90;;;;;;4972621;28;20059;-38
2023/07/02 08:31:36;;;;;;;10.43;6.10;;;20.50;99.90;;;;;;4972113;28;20026;-38
2023/07/02 08:34:02;;;;;;;11.20;6.30;;;20.60;99.90;;;;;;4972083;28;20406;-38
2023/07/02 08:36:28;;;;;;;12.80;6.30;;;20.60;99.90;;;;;;4972186;28;20093;-37
2023/07/02 08:38:54;;;;;;;10.60;6.50;;;20.60;99.90;;;;;;4972064;28;20479;-40
2023/07/02 08:41:21;;;;;;;9.38;6.18;;;20.60;99.90;;;;;;4975918;28;20031;-42
2023/07/02 08:43:48;;;;;;;8.93;5.78;;;20.60;99.90;;;;;;4975794;28;20019;-39
2023/07/02 08:46:16;;;;;;;9.93;6.22;;;20.60;99.90;;;;;;4975648;28;20035;-37
2023/07/02 08:48:41;;;;;;;9.38;6.18;;;20.60;99.90;;;;;;4975627;28;20367;-40
2023/07/02 08:51:07;;;;;;;8.98;5.80;;;20.60;99.90;;;;;;4975781;28;20479;-39
2023/07/02 08:53:33;;;;;;;9.73;6.07;;;20.60;99.90;;;;;;4975825;28;20034;-40
2023/07/02 08:56:03;;;;;;;11.43;6.53;;;20.60;99.90;;;;;;4975754;28;20390;-40
2023/07/02 08:58:28;;;;;;;10.80;6.78;;;20.60;99.90;;;;;;4975425;28;20541;-39
2023/07/02 09:01:11;;;;;;;9.43;6.50;;;20.60;99.90;;;;;;4975204;28;20043;-37
2023/07/02 09:03:38;;;;;;;18.80;9.40;;;20.60;99.90;;;;;;4975365;28;20026;-39
2023/07/02 09:06:13;;;;;;;23.45;10.55;;;20.60;99.90;;;;;;4975280;28;20101;-39
2023/07/02 09:08:39;;;;;;;18.48;10.07;;;20.60;99.90;;;;;;4975482;28;20023;-38
2023/07/02 09:11:19;;;;;;;18.05;9.80;;;20.50;99.90;;;;;;4989955;28;20030;-40
2023/07/02 09:13:49;;;;;;;17.02;9.77;;;20.50;99.90;;;;;;4975241;28;20166;-37
2023/07/02 09:16:32;;;;;;;20.02;10.25;;;20.50;99.90;;;;;;4975289;28;20129;-39
2023/07/02 09:19:03;;;;;;;18.35;10.18;;;20.50;99.90;;;;;;4975038;28;20549;-39
2023/07/02 09:21:45;;;;;;;19.77;10.00;;;20.50;99.90;;;;;;4975122;28;20027;-39
2023/07/02 09:24:19;;;;;;;16.27;9.65;;;20.50;99.90;;;;;;4974925;28;20070;-40
2023/07/02 09:26:53;;;;;;;16.00;10.10;;;20.50;99.90;;;;;;4975146;28;20042;-38
2023/07/02 09:29:25;;;;;;;19.02;10.57;;;20.50;99.90;;;;;;4975011;28;20259;-39
2023/07/02 09:31:51;;;;;;;17.88;9.82;;;20.50;99.90;;;;;;4975007;28;20549;-38
2023/07/02 09:34:16;;;;;;;18.67;10.40;;;20.60;99.90;;;;;;4974885;28;20038;-38
2023/07/02 09:36:43;;;;;;;17.63;9.68;;;20.60;99.90;;;;;;4974891;28;20019;-39
2023/07/02 09:39:22;;;;;;;16.92;10.38;;;20.60;99.90;;;;;;4974555;28;20019;-38
2023/07/02 09:41:49;;;;;;;17.08;10.02;;;20.60;99.90;;;;;;4975250;28;20019;-39
2023/07/02 09:44:16;;;;;;;17.95;10.30;;;20.60;99.90;;;;;;4974718;28;20019;-39
2023/07/02 09:46:49;;;;;;;18.50;10.18;;;20.60;99.90;;;;;;4974922;28;20548;-38
2023/07/02 09:49:19;;;;;;;16.60;10.20;;;20.60;99.90;;;;;;4974388;28;20031;-38
2023/07/02 09:51:46;;;;;;;13.65;9.18;;;20.60;99.90;;;;;;4974240;28;20023;-38
2023/07/02 09:54:12;;;;;;;15.77;10.00;;;20.60;99.90;;;;;;4974837;28;20022;-40
2023/07/02 09:56:39;;;;;;;15.77;9.35;;;20.60;99.90;;;;;;4974554;28;20122;-38
2023/07/02 09:59:05;;;;;;;14.95;9.77;;;20.60;99.90;;;;;;4989335;28;20486;-39
2023/07/02 10:01:30;;;;;;;15.93;10.25;;;20.60;99.90;;;;;;4974507;28;20094;-37
2023/07/02 10:03:56;;;;;;;16.50;10.05;;;20.60;99.90;;;;;;4974290;28;20034;-38
2023/07/02 10:06:21;;;;;;;16.02;9.85;;;20.70;99.90;;;;;;4974521;28;20058;-38
2023/07/02 10:08:55;;;;;;;15.48;9.60;;;20.70;99.90;;;;;;4974156;28;20026;-39
2023/07/02 10:11:21;;;;;;;14.35;9.68;;;20.70;99.90;;;;;;4974318;28;20026;-38
2023/07/02 10:13:58;;;;;;;22.23;12.68;;;20.70;99.90;;;;;;4974086;28;20027;-37
2023/07/02 10:16:26;;;;;;;22.88;12.10;;;20.60;99.90;;;;;;4974188;28;20038;-35
2023/07/02 10:18:52;;;;;;;32.60;14.98;;;20.70;99.90;;;;;;4973950;28;20027;-38
2023/07/02 10:21:18;;;;;;;29.30;13.95;;;20.70;99.90;;;;;;4974021;28;20026;-36
2023/07/02 10:23:44;;;;;;;23.70;13.60;;;20.70;99.90;;;;;;4973921;28;20077;-37
2023/07/02 10:26:13;;;;;;;27.38;14.30;;;20.70;99.90;;;;;;4973818;28;20030;-38
2023/07/02 10:28:39;;;;;;;25.92;13.52;;;20.70;99.90;;;;;;4973874;28;20482;-37
2023/07/02 10:31:16;;;;;;;22.58;13.35;;;20.70;99.90;;;;;;4973740;28;20038;-37
2023/07/02 10:33:44;;;;;;;26.08;14.10;;;20.70;99.90;;;;;;4973829;28;20077;-38
2023/07/02 10:36:18;;;;;;;24.70;13.70;;;20.80;99.90;;;;;;4973813;28;20029;-39
2023/07/02 10:38:43;;;;;;;;;;;20.80;99.90;;;;;;4974014;28;20031;-38
2023/07/02 10:41:09;;;;;;;24.30;13.35;;;20.80;99.90;;;;;;4973807;28;20044;-37
2023/07/02 10:43:34;;;;;;;25.42;14.02;;;20.80;99.90;;;;;;4973624;28;20379;-38
2023/07/02 10:46:00;;;;;;;30.80;14.90;;;20.70;99.90;;;;;;4973528;28;20034;-37
2023/07/02 10:48:26;;;;;;;24.67;13.80;;;20.70;99.90;;;;;;4973598;28;20047;-37
2023/07/02 10:50:52;;;;;;;26.20;13.10;;;20.80;99.90;;;;;;4973351;28;20038;-38
2023/07/02 10:53:19;;;;;;;22.17;13.30;;;20.80;99.90;;;;;;4973277;28;20033;-38
2023/07/02 10:55:45;;;;;;;25.73;13.98;;;20.80;99.90;;;;;;4973836;28;20101;-38
2023/07/02 10:58:11;;;;;;;20.40;13.32;;;20.80;99.90;;;;;;4975081;28;20448;-38
2023/07/02 11:00:47;;;;;;;19.77;12.40;;;20.80;99.90;;;;;;4973074;28;20113;-38
2023/07/02 11:03:23;;;;;;;19.45;12.73;;;20.80;99.90;;;;;;4972550;28;20042;-38
2023/07/02 11:05:50;;;;;;;21.15;12.02;;;20.80;99.90;;;;;;4973109;28;20079;-38
2023/07/02 11:08:16;;;;;;;20.85;13.25;;;20.80;99.90;;;;;;4973232;28;20027;-36
2023/07/02 11:10:42;;;;;;;21.20;13.10;;;20.80;99.90;;;;;;4973008;28;20682;-38
2023/07/02 11:13:16;;;;;;;21.40;13.18;;;20.80;99.90;;;;;;4973165;28;20347;-40
2023/07/02 11:15:42;;;;;;;23.67;12.95;;;20.80;99.90;;;;;;4973087;28;20187;-38
2023/07/02 11:18:10;;;;;;;21.02;13.18;;;20.80;99.90;;;;;;4973426;28;20045;-36
2023/07/02 11:20:35;;;;;;;19.83;13.10;;;20.80;99.90;;;;;;4972814;28;20082;-38
2023/07/02 11:23:01;;;;;;;22.25;12.73;;;20.80;99.90;;;;;;4973017;28;20023;-37
2023/07/02 11:25:27;;;;;;;18.80;11.82;;;20.80;99.90;;;;;;4972962;28;20027;-37
2023/07/02 11:28:03;;;;;;;19.67;11.80;;;20.80;99.90;;;;;;4973275;28;20030;-38
2023/07/02 11:30:28;;;;;;;21.02;12.85;;;20.80;99.90;;;;;;4972655;28;20026;-38
2023/07/02 11:32:55;;;;;;;18.48;12.07;;;20.80;99.90;;;;;;4973000;28;20034;-37
2023/07/02 11:35:21;;;;;;;18.20;12.18;;;20.80;99.90;;;;;;4973225;28;20034;-38
2023/07/02 11:37:48;;;;;;;18.35;12.18;;;20.80;99.90;;;;;;4973848;28;20386;-38
2023/07/02 11:40:16;;;;;;;19.13;12.63;;;20.80;99.90;;;;;;4972581;28;20027;-38
2023/07/02 11:42:43;;;;;;;17.63;12.27;;;20.80;99.90;;;;;;4972731;28;20031;-36
2023/07/02 11:45:09;;;;;;;17.77;12.27;;;20.80;99.90;;;;;;4973049;28;20460;-39
2023/07/02 11:47:35;;;;;;;18.17;12.32;;;20.90;99.90;;;;;;4973940;28;20033;-37
2023/07/02 11:50:01;;;;;;;18.77;12.13;;;20.90;99.90;;;;;;4973612;28;20498;-37
2023/07/02 11:52:26;;;;;;;18.45;12.20;;;20.90;99.90;;;;;;4972804;28;20109;-40
2023/07/02 11:54:52;;;;;;;20.40;12.18;;;20.90;99.90;;;;;;4972968;28;20077;-37
2023/07/02 11:57:17;;;;;;;18.13;11.73;;;20.90;99.90;;;;;;4973026;28;20054;-38
2023/07/02 11:59:43;;;;;;;18.92;11.88;;;20.90;99.90;;;;;;4973092;28;20441;-38
2023/07/02 12:02:09;;;;;;;19.30;12.13;;;20.90;99.90;;;;;;4972369;28;20050;-38
2023/07/02 12:04:34;;;;;;;16.48;11.02;;;20.90;99.90;;;;;;4972433;28;20368;-42
2023/07/02 12:07:03;;;;;;;19.98;12.25;;;20.90;99.90;;;;;;4972836;28;20027;-38
2023/07/02 12:09:29;;;;;;;20.92;11.57;;;20.90;99.90;;;;;;4972698;28;20019;-39
2023/07/02 12:11:55;;;;;;;21.75;12.57;;;20.90;99.20;;;;;;4973341;28;20025;-38
2023/07/02 12:14:20;;;;;;;24.30;13.02;;;20.90;99.30;;;;;;4974873;28;20030;-37
2023/07/02 12:16:46;;;;;;;20.60;13.07;;;20.90;99.30;;;;;;4976767;28;20539;-37
2023/07/02 12:19:12;;;;;;;22.15;12.40;;;20.90;99.30;;;;;;4976999;28;20109;-38
2023/07/02 12:21:37;;;;;;;19.60;13.07;;;20.90;99.20;;;;;;4976187;28;20033;-38
2023/07/02 12:24:08;;;;;;;19.17;12.30;;;20.90;99.30;;;;;;4976630;28;20027;-37
2023/07/02 12:26:34;;;;;;;20.58;11.52;;;20.90;99.40;;;;;;4976135;28;20026;-37
2023/07/02 12:28:59;;;;;;;20.88;12.65;;;20.90;99.50;;;;;;4975823;28;20030;-38
2023/07/02 12:31:25;;;;;;;21.10;12.10;;;20.90;99.60;;;;;;4976451;28;20031;-38
2023/07/02 12:33:51;;;;;;;17.15;12.02;;;20.90;99.60;;;;;;4976397;28;20022;-38
2023/07/02 12:36:16;;;;;;;18.67;11.90;;;20.90;99.70;;;;;;4976091;28;20027;-40
2023/07/02 12:38:42;;;;;;;18.80;11.65;;;20.90;99.90;;;;;;4976463;28;20034;-38